sensor_id;sensor_type;location;lat;lon;timestamp;temperature;humidity
23291;DHT22;11814;44.686;10.842;2023-09-19T00:00:42;23.00;99.90
23291;DHT22;11814;44.686;10.842;2023-09-19T00:03:10;23.00;99.90
23291;DHT22;11814;44.686;10.842;2023-09-19T00:05:38;22.90;99.90
23291;DHT22;11814;44.686;10.842;2023-09-19T00:08:04;22.90;99.90
23291;DHT22;11814;44.686;10.842;2023-09-19T00:10:31;22.90;99.90
23291;DHT22;11814;44.686;10.842;2023-09-19T00:12:58;22.90;99.90
23291;DHT22;11814;44.686;10.842;2023-09-19T00:15:31;22.80;99.90
23291;DHT22;11814;44.686;10.842;2023-09-19T00:18:01;22.80;99.90
23291;DHT22;11814;44.686;10.842;2023-09-19T00:20:26;22.70;99.90
23291;DHT22;11814;44.686;10.842;2023-09-19T00:22:53;22.70;99.90
23291;DHT22;11814;44.686;10.842;2023-09-19T00:25:20;22.60;99.90
23291;DHT22;11814;44.686;10.842;2023-09-19T00:27:46;22.50;99.90
23291;DHT22;11814;44.686;10.842;2023-09-19T00:30:13;22.50;99.90
23291;DHT22;11814;44.686;10.842;2023-09-19T00:32:45;22.40;99.90
23291;DHT22;11814;44.686;10.842;2023-09-19T00:35:13;22.40;99.90
23291;DHT22;11814;44.686;10.842;2023-09-19T00:37:42;22.30;99.90
23291;DHT22;11814;44.686;10.842;2023-09-19T00:40:09;22.30;99.90
23291;DHT22;11814;44.686;10.842;2023-09-19T00:42:39;22.20;99.90
23291;DHT22;11814;44.686;10.842;2023-09-19T00:45:10;22.20;99.90
23291;DHT22;11814;44.686;10.842;2023-09-19T00:47:43;22.20;99.90
23291;DHT22;11814;44.686;10.842;2023-09-19T00:50:12;22.20;99.90
23291;DHT22;11814;44.686;10.842;2023-09-19T00:52:40;22.20;99.90
23291;DHT22;11814;44.686;10.842;2023-09-19T00:55:11;22.20;99.90
23291;DHT22;11814;44.686;10.842;2023-09-19T00:57:40;22.10;99.90
23291;DHT22;11814;44.686;10.842;2023-09-19T01:00:08;22.00;99.90
23291;DHT22;11814;44.686;10.842;2023-09-19T01:02:37;22.00;99.90
23291;DHT22;11814;44.686;10.842;2023-09-19T01:05:03;21.90;99.90
23291;DHT22;11814;44.686;10.842;2023-09-19T01:07:32;21.80;99.90
23291;DHT22;11814;44.686;10.842;2023-09-19T01:10:02;21.80;99.90
23291;DHT22;11814;44.686;10.842;2023-09-19T01:15:38;21.70;99.90
23291;DHT22;11814;44.686;10.842;2023-09-19T01:18:23;21.70;99.90
23291;DHT22;11814;44.686;10.842;2023-09-19T01:31:34;21.60;99.90
23291;DHT22;11814;44.686;10.842;2023-09-19T01:34:03;21.60;99.90
23291;DHT22;11814;44.686;10.842;2023-09-19T01:36:35;21.60;99.90
23291;DHT22;11814;44.686;10.842;2023-09-19T01:39:10;21.60;99.90
23291;DHT22;11814;44.686;10.842;2023-09-19T01:45:27;21.50;99.90
23291;DHT22;11814;44.686;10.842;2023-09-19T01:47:54;21.50;99.90
23291;DHT22;11814;44.686;10.842;2023-09-19T01:53:04;21.50;99.90
23291;DHT22;11814;44.686;10.842;2023-09-19T01:55:30;21.40;99.90
23291;DHT22;11814;44.686;10.842;2023-09-19T01:58:08;21.50;99.90
23291;DHT22;11814;44.686;10.842;2023-09-19T02:00:41;21.50;99.90
23291;DHT22;11814;44.686;10.842;2023-09-19T02:03:10;21.50;99.90
23291;DHT22;11814;44.686;10.842;2023-09-19T02:05:37;21.50;99.90
23291;DHT22;11814;44.686;10.842;2023-09-19T02:08:04;21.50;99.90
23291;DHT22;11814;44.686;10.842;2023-09-19T02:10:30;21.50;99.90
23291;DHT22;11814;44.686;10.842;2023-09-19T02:12:56;21.60;99.90
23291;DHT22;11814;44.686;10.842;2023-09-19T02:15:22;21.60;99.90
23291;DHT22;11814;44.686;10.842;2023-09-19T02:17:48;21.60;99.90
23291;DHT22;11814;44.686;10.842;2023-09-19T02:20:14;21.60;99.90
23291;DHT22;11814;44.686;10.842;2023-09-19T02:22:41;21.50;99.90
23291;DHT22;11814;44.686;10.842;2023-09-19T02:25:08;21.50;99.90
23291;DHT22;11814;44.686;10.842;2023-09-19T02:27:34;21.50;99.90
23291;DHT22;11814;44.686;10.842;2023-09-19T02:30:00;21.60;99.90
23291;DHT22;11814;44.686;10.842;2023-09-19T02:32:30;21.60;99.90
23291;DHT22;11814;44.686;10.842;2023-09-19T02:34:57;21.60;99.90
23291;DHT22;11814;44.686;10.842;2023-09-19T02:37:25;21.60;99.90
23291;DHT22;11814;44.686;10.842;2023-09-19T02:39:51;21.60;99.90
23291;DHT22;11814;44.686;10.842;2023-09-19T02:42:16;21.60;99.90
23291;DHT22;11814;44.686;10.842;2023-09-19T02:44:42;21.60;99.90
23291;DHT22;11814;44.686;10.842;2023-09-19T02:47:08;21.60;99.90
23291;DHT22;11814;44.686;10.842;2023-09-19T02:49:34;21.60;99.90
23291;DHT22;11814;44.686;10.842;2023-09-19T02:52:00;21.60;99.90
23291;DHT22;11814;44.686;10.842;2023-09-19T02:54:26;21.60;99.90
23291;DHT22;11814;44.686;10.842;2023-09-19T02:56:51;21.60;99.90
23291;DHT22;11814;44.686;10.842;2023-09-19T02:59:19;21.60;99.90
23291;DHT22;11814;44.686;10.842;2023-09-19T03:01:44;21.60;99.90
23291;DHT22;11814;44.686;10.842;2023-09-19T03:04:13;21.60;99.90
23291;DHT22;11814;44.686;10.842;2023-09-19T03:06:42;21.50;99.90
23291;DHT22;11814;44.686;10.842;2023-09-19T03:09:08;21.50;99.90
23291;DHT22;11814;44.686;10.842;2023-09-19T03:11:39;21.50;99.90
23291;DHT22;11814;44.686;10.842;2023-09-19T03:14:05;21.50;99.90
23291;DHT22;11814;44.686;10.842;2023-09-19T03:16:31;21.50;99.90
23291;DHT22;11814;44.686;10.842;2023-09-19T03:18:57;21.50;99.90
23291;DHT22;11814;44.686;10.842;2023-09-19T03:21:25;21.50;99.90
23291;DHT22;11814;44.686;10.842;2023-09-19T03:23:51;21.50;99.90
23291;DHT22;11814;44.686;10.842;2023-09-19T03:26:16;21.50;99.90
23291;DHT22;11814;44.686;10.842;2023-09-19T03:28:42;21.50;99.90
23291;DHT22;11814;44.686;10.842;2023-09-19T03:31:09;21.50;99.90
23291;DHT22;11814;44.686;10.842;2023-09-19T03:33:35;21.50;99.90
23291;DHT22;11814;44.686;10.842;2023-09-19T03:36:02;21.50;99.90
23291;DHT22;11814;44.686;10.842;2023-09-19T03:38:31;21.50;99.90
23291;DHT22;11814;44.686;10.842;2023-09-19T03:40:57;21.40;99.90
23291;DHT22;11814;44.686;10.842;2023-09-19T03:43:24;21.30;99.90
23291;DHT22;11814;44.686;10.842;2023-09-19T03:45:50;21.30;99.90
23291;DHT22;11814;44.686;10.842;2023-09-19T03:48:16;21.20;99.90
23291;DHT22;11814;44.686;10.842;2023-09-19T03:50:42;21.20;99.90
23291;DHT22;11814;44.686;10.842;2023-09-19T03:53:09;21.20;99.90
23291;DHT22;11814;44.686;10.842;2023-09-19T03:55:35;21.20;99.90
23291;DHT22;11814;44.686;10.842;2023-09-19T03:58:01;21.10;99.90
23291;DHT22;11814;44.686;10.842;2023-09-19T04:00:27;21.10;99.90
23291;DHT22;11814;44.686;10.842;2023-09-19T04:02:55;21.10;99.90
23291;DHT22;11814;44.686;10.842;2023-09-19T04:05:22;21.10;99.90
23291;DHT22;11814;44.686;10.842;2023-09-19T04:07:48;21.10;99.90
23291;DHT22;11814;44.686;10.842;2023-09-19T04:10:15;21.10;99.90
23291;DHT22;11814;44.686;10.842;2023-09-19T04:12:41;21.10;99.90
23291;DHT22;11814;44.686;10.842;2023-09-19T04:15:15;21.10;99.90
23291;DHT22;11814;44.686;10.842;2023-09-19T04:17:41;21.10;99.90
23291;DHT22;11814;44.686;10.842;2023-09-19T04:20:07;21.10;99.90
23291;DHT22;11814;44.686;10.842;2023-09-19T04:22:33;21.10;99.90
23291;DHT22;11814;44.686;10.842;2023-09-19T04:24:59;21.00;99.90
23291;DHT22;11814;44.686;10.842;2023-09-19T04:27:25;21.00;99.90
23291;DHT22;11814;44.686;10.842;2023-09-19T04:29:50;21.00;99.90
23291;DHT22;11814;44.686;10.842;2023-09-19T04:32:18;20.90;99.90
23291;DHT22;11814;44.686;10.842;2023-09-19T04:34:44;20.90;99.90
23291;DHT22;11814;44.686;10.842;2023-09-19T04:37:09;20.90;99.90
23291;DHT22;11814;44.686;10.842;2023-09-19T04:39:36;20.90;99.90
23291;DHT22;11814;44.686;10.842;2023-09-19T04:42:02;20.90;99.90
23291;DHT22;11814;44.686;10.842;2023-09-19T04:44:28;20.80;99.90
23291;DHT22;11814;44.686;10.842;2023-09-19T04:46:54;20.80;99.90
23291;DHT22;11814;44.686;10.842;2023-09-19T04:49:20;20.70;99.90
23291;DHT22;11814;44.686;10.842;2023-09-19T04:51:45;20.70;99.90
23291;DHT22;11814;44.686;10.842;2023-09-19T04:54:12;20.60;99.90
23291;DHT22;11814;44.686;10.842;2023-09-19T04:56:38;20.50;99.90
23291;DHT22;11814;44.686;10.842;2023-09-19T04:59:05;20.50;99.90
23291;DHT22;11814;44.686;10.842;2023-09-19T05:01:32;20.60;99.90
23291;DHT22;11814;44.686;10.842;2023-09-19T05:03:57;20.50;99.90
23291;DHT22;11814;44.686;10.842;2023-09-19T05:06:23;20.60;99.90
23291;DHT22;11814;44.686;10.842;2023-09-19T05:08:49;20.70;99.90
23291;DHT22;11814;44.686;10.842;2023-09-19T05:11:19;20.70;99.90
23291;DHT22;11814;44.686;10.842;2023-09-19T05:13:48;20.80;99.90
23291;DHT22;11814;44.686;10.842;2023-09-19T05:16:16;20.80;99.90
23291;DHT22;11814;44.686;10.842;2023-09-19T05:18:42;20.80;99.90
23291;DHT22;11814;44.686;10.842;2023-09-19T05:21:08;20.80;99.90
23291;DHT22;11814;44.686;10.842;2023-09-19T05:23:34;20.80;99.90
23291;DHT22;11814;44.686;10.842;2023-09-19T05:25:59;20.80;99.90
23291;DHT22;11814;44.686;10.842;2023-09-19T05:28:26;20.80;99.90
23291;DHT22;11814;44.686;10.842;2023-09-19T05:30:52;20.80;99.90
23291;DHT22;11814;44.686;10.842;2023-09-19T05:33:19;20.70;99.90
23291;DHT22;11814;44.686;10.842;2023-09-19T05:35:45;20.60;99.90
23291;DHT22;11814;44.686;10.842;2023-09-19T05:38:12;20.60;99.90
23291;DHT22;11814;44.686;10.842;2023-09-19T05:40:39;20.60;99.90
23291;DHT22;11814;44.686;10.842;2023-09-19T05:43:08;20.70;99.90
23291;DHT22;11814;44.686;10.842;2023-09-19T05:45:34;20.70;99.90
23291;DHT22;11814;44.686;10.842;2023-09-19T05:48:10;20.70;99.90
23291;DHT22;11814;44.686;10.842;2023-09-19T05:50:41;20.80;99.90
23291;DHT22;11814;44.686;10.842;2023-09-19T05:53:07;20.80;99.90
23291;DHT22;11814;44.686;10.842;2023-09-19T05:55:33;20.80;99.90
23291;DHT22;11814;44.686;10.842;2023-09-19T05:57:59;20.90;99.90
23291;DHT22;11814;44.686;10.842;2023-09-19T06:00:25;21.00;99.90
23291;DHT22;11814;44.686;10.842;2023-09-19T06:02:56;21.00;99.90
23291;DHT22;11814;44.686;10.842;2023-09-19T06:05:23;21.10;99.90
23291;DHT22;11814;44.686;10.842;2023-09-19T06:07:50;21.20;99.90
23291;DHT22;11814;44.686;10.842;2023-09-19T06:10:17;21.30;99.90
23291;DHT22;11814;44.686;10.842;2023-09-19T06:12:43;21.30;99.90
23291;DHT22;11814;44.686;10.842;2023-09-19T06:15:13;21.30;99.90
23291;DHT22;11814;44.686;10.842;2023-09-19T06:17:48;21.40;99.90
23291;DHT22;11814;44.686;10.842;2023-09-19T06:20:14;21.50;99.90
23291;DHT22;11814;44.686;10.842;2023-09-19T06:22:41;21.50;99.90
23291;DHT22;11814;44.686;10.842;2023-09-19T06:25:08;21.60;99.90
23291;DHT22;11814;44.686;10.842;2023-09-19T06:27:37;21.70;99.90
23291;DHT22;11814;44.686;10.842;2023-09-19T06:30:03;21.70;99.90
23291;DHT22;11814;44.686;10.842;2023-09-19T06:32:29;21.80;99.90
23291;DHT22;11814;44.686;10.842;2023-09-19T06:34:55;21.80;99.90
23291;DHT22;11814;44.686;10.842;2023-09-19T06:37:21;22.00;99.90
23291;DHT22;11814;44.686;10.842;2023-09-19T06:39:47;22.00;99.90
23291;DHT22;11814;44.686;10.842;2023-09-19T06:42:15;22.00;99.90
23291;DHT22;11814;44.686;10.842;2023-09-19T06:44:42;22.10;99.90
23291;DHT22;11814;44.686;10.842;2023-09-19T06:47:08;22.20;99.90
23291;DHT22;11814;44.686;10.842;2023-09-19T06:49:35;22.30;99.90
23291;DHT22;11814;44.686;10.842;2023-09-19T06:52:01;22.40;99.90
23291;DHT22;11814;44.686;10.842;2023-09-19T06:54:28;22.50;99.90
23291;DHT22;11814;44.686;10.842;2023-09-19T06:56:57;22.60;99.90
23291;DHT22;11814;44.686;10.842;2023-09-19T06:59:24;22.90;99.90
23291;DHT22;11814;44.686;10.842;2023-09-19T07:01:50;23.30;99.90
23291;DHT22;11814;44.686;10.842;2023-09-19T07:04:16;23.50;99.90
23291;DHT22;11814;44.686;10.842;2023-09-19T07:06:42;23.70;99.90
23291;DHT22;11814;44.686;10.842;2023-09-19T07:09:08;23.90;99.90
23291;DHT22;11814;44.686;10.842;2023-09-19T07:11:34;23.90;99.90
23291;DHT22;11814;44.686;10.842;2023-09-19T07:14:00;23.90;99.90
23291;DHT22;11814;44.686;10.842;2023-09-19T07:16:28;24.00;99.90
23291;DHT22;11814;44.686;10.842;2023-09-19T07:18:56;24.00;99.90
23291;DHT22;11814;44.686;10.842;2023-09-19T07:21:23;24.00;99.90
23291;DHT22;11814;44.686;10.842;2023-09-19T07:23:49;24.10;99.90
23291;DHT22;11814;44.686;10.842;2023-09-19T07:26:15;24.30;99.90
23291;DHT22;11814;44.686;10.842;2023-09-19T07:28:41;24.40;99.90
23291;DHT22;11814;44.686;10.842;2023-09-19T07:31:07;24.60;99.90
23291;DHT22;11814;44.686;10.842;2023-09-19T07:33:35;24.80;99.90
23291;DHT22;11814;44.686;10.842;2023-09-19T07:36:01;25.20;99.90
23291;DHT22;11814;44.686;10.842;2023-09-19T07:38:27;25.30;99.90
23291;DHT22;11814;44.686;10.842;2023-09-19T07:40:53;25.40;99.90
23291;DHT22;11814;44.686;10.842;2023-09-19T07:43:19;25.50;99.90
23291;DHT22;11814;44.686;10.842;2023-09-19T07:45:44;25.70;99.90
23291;DHT22;11814;44.686;10.842;2023-09-19T07:48:10;25.90;99.90
23291;DHT22;11814;44.686;10.842;2023-09-19T07:50:40;25.90;99.90
23291;DHT22;11814;44.686;10.842;2023-09-19T07:53:08;25.80;99.90
23291;DHT22;11814;44.686;10.842;2023-09-19T07:55:34;25.70;99.90
23291;DHT22;11814;44.686;10.842;2023-09-19T07:58:00;25.60;99.90
23291;DHT22;11814;44.686;10.842;2023-09-19T08:00:26;25.60;99.90
23291;DHT22;11814;44.686;10.842;2023-09-19T08:02:51;25.60;99.90
23291;DHT22;11814;44.686;10.842;2023-09-19T08:05:17;25.70;99.90
23291;DHT22;11814;44.686;10.842;2023-09-19T08:07:46;25.80;99.90
23291;DHT22;11814;44.686;10.842;2023-09-19T08:10:15;25.90;99.90
23291;DHT22;11814;44.686;10.842;2023-09-19T08:12:46;26.00;99.90
23291;DHT22;11814;44.686;10.842;2023-09-19T08:15:13;26.10;99.90
23291;DHT22;11814;44.686;10.842;2023-09-19T08:17:40;26.10;99.90
23291;DHT22;11814;44.686;10.842;2023-09-19T08:20:07;26.10;99.90
23291;DHT22;11814;44.686;10.842;2023-09-19T08:22:33;26.00;99.90
23291;DHT22;11814;44.686;10.842;2023-09-19T08:24:58;26.10;99.90
23291;DHT22;11814;44.686;10.842;2023-09-19T08:27:24;26.10;99.90
23291;DHT22;11814;44.686;10.842;2023-09-19T08:29:53;26.20;99.90
23291;DHT22;11814;44.686;10.842;2023-09-19T08:32:19;26.20;99.90
23291;DHT22;11814;44.686;10.842;2023-09-19T08:34:50;26.20;99.90
23291;DHT22;11814;44.686;10.842;2023-09-19T08:37:15;26.20;99.90
23291;DHT22;11814;44.686;10.842;2023-09-19T08:39:43;26.30;99.90
23291;DHT22;11814;44.686;10.842;2023-09-19T08:42:10;26.30;99.90
23291;DHT22;11814;44.686;10.842;2023-09-19T08:44:37;26.30;99.90
23291;DHT22;11814;44.686;10.842;2023-09-19T08:47:14;26.40;99.90
23291;DHT22;11814;44.686;10.842;2023-09-19T08:50:03;26.50;99.90
23291;DHT22;11814;44.686;10.842;2023-09-19T08:52:42;26.60;99.90
23291;DHT22;11814;44.686;10.842;2023-09-19T08:55:12;26.70;99.90
23291;DHT22;11814;44.686;10.842;2023-09-19T08:57:39;26.70;99.90
23291;DHT22;11814;44.686;10.842;2023-09-19T09:00:08;26.80;99.90
23291;DHT22;11814;44.686;10.842;2023-09-19T09:02:41;26.80;99.90
23291;DHT22;11814;44.686;10.842;2023-09-19T09:05:09;26.80;99.90
23291;DHT22;11814;44.686;10.842;2023-09-19T09:07:42;26.80;99.90
23291;DHT22;11814;44.686;10.842;2023-09-19T09:10:09;26.90;99.90
23291;DHT22;11814;44.686;10.842;2023-09-19T09:12:35;26.90;99.90
23291;DHT22;11814;44.686;10.842;2023-09-19T09:15:04;27.00;99.80
23291;DHT22;11814;44.686;10.842;2023-09-19T09:17:30;27.20;99.60
23291;DHT22;11814;44.686;10.842;2023-09-19T09:19:56;27.30;98.40
23291;DHT22;11814;44.686;10.842;2023-09-19T09:22:22;27.30;97.50
23291;DHT22;11814;44.686;10.842;2023-09-19T09:24:59;27.30;97.00
23291;DHT22;11814;44.686;10.842;2023-09-19T09:27:27;27.30;96.30
23291;DHT22;11814;44.686;10.842;2023-09-19T09:29:53;27.30;96.20
23291;DHT22;11814;44.686;10.842;2023-09-19T09:32:31;27.40;96.00
23291;DHT22;11814;44.686;10.842;2023-09-19T09:35:06;27.40;96.00
23291;DHT22;11814;44.686;10.842;2023-09-19T09:37:35;27.50;95.90
23291;DHT22;11814;44.686;10.842;2023-09-19T09:40:04;27.60;96.10
23291;DHT22;11814;44.686;10.842;2023-09-19T09:42:37;27.70;96.00
23291;DHT22;11814;44.686;10.842;2023-09-19T09:45:19;27.80;95.50
23291;DHT22;11814;44.686;10.842;2023-09-19T09:47:54;27.90;94.80
23291;DHT22;11814;44.686;10.842;2023-09-19T09:50:36;28.00;94.30
23291;DHT22;11814;44.686;10.842;2023-09-19T09:53:21;28.10;93.70
23291;DHT22;11814;44.686;10.842;2023-09-19T09:58:36;28.30;92.40
23291;DHT22;11814;44.686;10.842;2023-09-19T10:01:04;28.30;91.80
23291;DHT22;11814;44.686;10.842;2023-09-19T10:03:38;28.30;91.50
23291;DHT22;11814;44.686;10.842;2023-09-19T10:06:14;28.40;91.10
23291;DHT22;11814;44.686;10.842;2023-09-19T10:11:31;28.60;90.50
23291;DHT22;11814;44.686;10.842;2023-09-19T10:14:00;28.60;90.40
23291;DHT22;11814;44.686;10.842;2023-09-19T10:16:30;28.60;90.60
23291;DHT22;11814;44.686;10.842;2023-09-19T10:19:00;28.70;90.30
23291;DHT22;11814;44.686;10.842;2023-09-19T10:21:28;28.70;90.00
23291;DHT22;11814;44.686;10.842;2023-09-19T10:23:58;28.80;90.00
23291;DHT22;11814;44.686;10.842;2023-09-19T10:26:26;28.90;89.20
23291;DHT22;11814;44.686;10.842;2023-09-19T10:28:56;28.90;87.50
23291;DHT22;11814;44.686;10.842;2023-09-19T10:31:23;28.70;87.80
23291;DHT22;11814;44.686;10.842;2023-09-19T10:33:51;28.70;88.30
23291;DHT22;11814;44.686;10.842;2023-09-19T10:36:19;28.80;88.70
23291;DHT22;11814;44.686;10.842;2023-09-19T10:38:45;28.70;87.80
23291;DHT22;11814;44.686;10.842;2023-09-19T10:41:14;28.70;88.10
23291;DHT22;11814;44.686;10.842;2023-09-19T10:43:43;28.60;88.00
23291;DHT22;11814;44.686;10.842;2023-09-19T10:46:11;28.70;87.80
23291;DHT22;11814;44.686;10.842;2023-09-19T10:48:39;28.70;87.50
23291;DHT22;11814;44.686;10.842;2023-09-19T10:51:09;28.60;87.30
23291;DHT22;11814;44.686;10.842;2023-09-19T10:53:53;28.60;87.80
23291;DHT22;11814;44.686;10.842;2023-09-19T10:56:24;28.60;88.00
23291;DHT22;11814;44.686;10.842;2023-09-19T10:59:08;28.70;87.80
23291;DHT22;11814;44.686;10.842;2023-09-19T11:01:56;28.80;87.30
23291;DHT22;11814;44.686;10.842;2023-09-19T11:07:05;28.80;86.90
23291;DHT22;11814;44.686;10.842;2023-09-19T11:09:56;28.80;87.10
23291;DHT22;11814;44.686;10.842;2023-09-19T11:15:01;29.00;85.80
23291;DHT22;11814;44.686;10.842;2023-09-19T11:17:37;29.00;85.40
23291;DHT22;11814;44.686;10.842;2023-09-19T11:30:31;29.20;84.10
23291;DHT22;11814;44.686;10.842;2023-09-19T11:33:32;29.30;84.50
23291;DHT22;11814;44.686;10.842;2023-09-19T11:41:40;29.30;83.60
23291;DHT22;11814;44.686;10.842;2023-09-19T11:46:51;29.40;82.80
23291;DHT22;11814;44.686;10.842;2023-09-19T11:49:26;29.40;82.60
23291;DHT22;11814;44.686;10.842;2023-09-19T11:51:58;29.50;82.30
23291;DHT22;11814;44.686;10.842;2023-09-19T11:54:30;29.60;82.00
23291;DHT22;11814;44.686;10.842;2023-09-19T11:57:00;29.60;81.70
23291;DHT22;11814;44.686;10.842;2023-09-19T11:59:27;29.60;81.40
23291;DHT22;11814;44.686;10.842;2023-09-19T12:01:59;29.60;81.20
23291;DHT22;11814;44.686;10.842;2023-09-19T12:07:08;29.60;80.40
23291;DHT22;11814;44.686;10.842;2023-09-19T12:09:45;29.70;80.10
23291;DHT22;11814;44.686;10.842;2023-09-19T12:12:25;29.80;80.10
23291;DHT22;11814;44.686;10.842;2023-09-19T12:14:56;29.90;80.30
23291;DHT22;11814;44.686;10.842;2023-09-19T12:17:37;29.80;80.40
23291;DHT22;11814;44.686;10.842;2023-09-19T12:20:05;29.90;81.00
23291;DHT22;11814;44.686;10.842;2023-09-19T12:22:47;30.00;80.80
23291;DHT22;11814;44.686;10.842;2023-09-19T12:25:14;30.00;79.60
23291;DHT22;11814;44.686;10.842;2023-09-19T12:27:45;30.00;78.90
23291;DHT22;11814;44.686;10.842;2023-09-19T12:30:27;30.00;78.70
23291;DHT22;11814;44.686;10.842;2023-09-19T12:32:53;29.90;78.90
23291;DHT22;11814;44.686;10.842;2023-09-19T12:35:33;30.00;79.20
23291;DHT22;11814;44.686;10.842;2023-09-19T12:38:04;30.10;79.10
23291;DHT22;11814;44.686;10.842;2023-09-19T12:40:31;30.10;78.70
23291;DHT22;11814;44.686;10.842;2023-09-19T12:43:00;30.10;79.50
23291;DHT22;11814;44.686;10.842;2023-09-19T12:45:29;30.10;78.40
23291;DHT22;11814;44.686;10.842;2023-09-19T12:48:18;30.00;78.30
23291;DHT22;11814;44.686;10.842;2023-09-19T12:51:07;30.00;78.10
23291;DHT22;11814;44.686;10.842;2023-09-19T12:53:37;30.00;78.70
23291;DHT22;11814;44.686;10.842;2023-09-19T12:56:08;30.00;77.90
23291;DHT22;11814;44.686;10.842;2023-09-19T12:58:51;29.90;77.70
23291;DHT22;11814;44.686;10.842;2023-09-19T13:01:19;29.90;77.60
23291;DHT22;11814;44.686;10.842;2023-09-19T13:03:45;29.90;77.30
23291;DHT22;11814;44.686;10.842;2023-09-19T13:06:11;30.00;77.30
23291;DHT22;11814;44.686;10.842;2023-09-19T13:08:39;30.10;77.00
23291;DHT22;11814;44.686;10.842;2023-09-19T13:11:17;30.10;76.40
23291;DHT22;11814;44.686;10.842;2023-09-19T13:14:12;30.20;76.00
23291;DHT22;11814;44.686;10.842;2023-09-19T13:19:35;30.00;75.50
23291;DHT22;11814;44.686;10.842;2023-09-19T13:22:01;30.10;76.00
23291;DHT22;11814;44.686;10.842;2023-09-19T13:24:28;30.10;75.60
23291;DHT22;11814;44.686;10.842;2023-09-19T13:26:55;30.10;75.30
23291;DHT22;11814;44.686;10.842;2023-09-19T13:29:21;30.10;75.30
23291;DHT22;11814;44.686;10.842;2023-09-19T13:31:51;30.10;75.30
23291;DHT22;11814;44.686;10.842;2023-09-19T13:34:19;30.10;75.10
23291;DHT22;11814;44.686;10.842;2023-09-19T13:36:45;30.10;75.20
23291;DHT22;11814;44.686;10.842;2023-09-19T13:39:14;30.10;75.00
23291;DHT22;11814;44.686;10.842;2023-09-19T13:41:41;30.10;74.60
23291;DHT22;11814;44.686;10.842;2023-09-19T13:44:08;30.10;74.40
23291;DHT22;11814;44.686;10.842;2023-09-19T13:46:36;30.10;75.10
23291;DHT22;11814;44.686;10.842;2023-09-19T13:49:02;30.10;74.30
23291;DHT22;11814;44.686;10.842;2023-09-19T13:51:31;30.10;74.20
23291;DHT22;11814;44.686;10.842;2023-09-19T13:53:57;30.10;74.00
23291;DHT22;11814;44.686;10.842;2023-09-19T13:56:23;30.10;73.60
23291;DHT22;11814;44.686;10.842;2023-09-19T13:58:50;30.10;73.40
23291;DHT22;11814;44.686;10.842;2023-09-19T14:01:15;30.10;73.40
23291;DHT22;11814;44.686;10.842;2023-09-19T14:03:42;30.10;73.50
23291;DHT22;11814;44.686;10.842;2023-09-19T14:06:13;30.10;73.30
23291;DHT22;11814;44.686;10.842;2023-09-19T14:08:38;30.10;72.90
23291;DHT22;11814;44.686;10.842;2023-09-19T14:11:10;30.10;72.80
23291;DHT22;11814;44.686;10.842;2023-09-19T14:13:36;30.00;72.70
23291;DHT22;11814;44.686;10.842;2023-09-19T14:16:05;30.00;72.90
23291;DHT22;11814;44.686;10.842;2023-09-19T14:18:32;30.10;73.00
23291;DHT22;11814;44.686;10.842;2023-09-19T14:20:58;30.10;73.20
23291;DHT22;11814;44.686;10.842;2023-09-19T14:23:23;30.10;73.10
23291;DHT22;11814;44.686;10.842;2023-09-19T14:25:50;30.10;72.90
23291;DHT22;11814;44.686;10.842;2023-09-19T14:28:17;30.10;72.70
23291;DHT22;11814;44.686;10.842;2023-09-19T14:30:43;30.10;72.60
23291;DHT22;11814;44.686;10.842;2023-09-19T14:33:09;30.20;72.40
23291;DHT22;11814;44.686;10.842;2023-09-19T14:35:37;30.20;72.00
23291;DHT22;11814;44.686;10.842;2023-09-19T14:38:04;30.20;71.80
23291;DHT22;11814;44.686;10.842;2023-09-19T14:40:29;30.20;71.60
23291;DHT22;11814;44.686;10.842;2023-09-19T14:42:56;30.20;71.70
23291;DHT22;11814;44.686;10.842;2023-09-19T14:45:22;30.30;71.30
23291;DHT22;11814;44.686;10.842;2023-09-19T14:47:48;30.40;71.10
23291;DHT22;11814;44.686;10.842;2023-09-19T14:50:14;30.40;70.90
23291;DHT22;11814;44.686;10.842;2023-09-19T14:52:41;30.40;71.20
23291;DHT22;11814;44.686;10.842;2023-09-19T14:55:07;30.40;71.40
23291;DHT22;11814;44.686;10.842;2023-09-19T14:57:35;30.30;71.60
23291;DHT22;11814;44.686;10.842;2023-09-19T15:00:06;30.30;71.80
23291;DHT22;11814;44.686;10.842;2023-09-19T15:02:40;30.30;71.80
23291;DHT22;11814;44.686;10.842;2023-09-19T15:05:06;30.30;71.60
23291;DHT22;11814;44.686;10.842;2023-09-19T15:07:35;30.30;71.50
23291;DHT22;11814;44.686;10.842;2023-09-19T15:10:02;30.20;71.40
23291;DHT22;11814;44.686;10.842;2023-09-19T15:12:32;30.20;71.20
23291;DHT22;11814;44.686;10.842;2023-09-19T15:14:58;30.20;71.00
23291;DHT22;11814;44.686;10.842;2023-09-19T15:17:24;30.20;71.00
23291;DHT22;11814;44.686;10.842;2023-09-19T15:19:50;30.20;71.00
23291;DHT22;11814;44.686;10.842;2023-09-19T15:22:16;30.20;70.60
23291;DHT22;11814;44.686;10.842;2023-09-19T15:24:42;30.10;70.40
23291;DHT22;11814;44.686;10.842;2023-09-19T15:27:08;30.10;70.40
23291;DHT22;11814;44.686;10.842;2023-09-19T15:29:34;30.10;70.20
23291;DHT22;11814;44.686;10.842;2023-09-19T15:31:59;30.10;70.40
23291;DHT22;11814;44.686;10.842;2023-09-19T15:34:28;30.10;70.60
23291;DHT22;11814;44.686;10.842;2023-09-19T15:36:54;30.10;70.70
23291;DHT22;11814;44.686;10.842;2023-09-19T15:39:20;30.10;71.00
23291;DHT22;11814;44.686;10.842;2023-09-19T15:41:48;30.10;70.70
23291;DHT22;11814;44.686;10.842;2023-09-19T15:44:18;30.00;70.80
23291;DHT22;11814;44.686;10.842;2023-09-19T15:46:44;29.90;70.90
23291;DHT22;11814;44.686;10.842;2023-09-19T15:49:10;29.80;71.20
23291;DHT22;11814;44.686;10.842;2023-09-19T15:51:36;29.80;71.50
23291;DHT22;11814;44.686;10.842;2023-09-19T15:54:13;29.70;71.40
23291;DHT22;11814;44.686;10.842;2023-09-19T15:56:42;29.70;71.50
23291;DHT22;11814;44.686;10.842;2023-09-19T15:59:08;29.70;71.80
23291;DHT22;11814;44.686;10.842;2023-09-19T16:01:35;29.60;71.80
23291;DHT22;11814;44.686;10.842;2023-09-19T16:04:02;29.60;72.10
23291;DHT22;11814;44.686;10.842;2023-09-19T16:06:30;29.60;72.30
23291;DHT22;11814;44.686;10.842;2023-09-19T16:08:59;29.60;72.80
23291;DHT22;11814;44.686;10.842;2023-09-19T16:11:27;29.60;72.80
23291;DHT22;11814;44.686;10.842;2023-09-19T16:13:53;29.50;72.60
23291;DHT22;11814;44.686;10.842;2023-09-19T16:16:20;29.50;72.50
23291;DHT22;11814;44.686;10.842;2023-09-19T16:18:50;29.60;72.50